sensor_id;sensor_type;location;lat;lon;timestamp;temperature;humidity
18733;DHT22;9495;51.210;2.934;2023-07-29T00:00:23;21.10;99.90
18733;DHT22;9495;51.210;2.934;2023-07-29T00:02:52;21.20;99.90
18733;DHT22;9495;51.210;2.934;2023-07-29T00:05:21;21.00;99.90
18733;DHT22;9495;51.210;2.934;2023-07-29T00:07:49;21.30;99.90
18733;DHT22;9495;51.210;2.934;2023-07-29T00:10:18;21.00;99.90
18733;DHT22;9495;51.210;2.934;2023-07-29T00:12:47;20.80;99.90
18733;DHT22;9495;51.210;2.934;2023-07-29T00:15:15;20.50;99.90
18733;DHT22;9495;51.210;2.934;2023-07-29T00:17:45;20.30;99.90
18733;DHT22;9495;51.210;2.934;2023-07-29T00:20:14;20.30;99.90
18733;DHT22;9495;51.210;2.934;2023-07-29T00:22:43;20.10;99.90
18733;DHT22;9495;51.210;2.934;2023-07-29T00:25:11;20.20;99.90
18733;DHT22;9495;51.210;2.934;2023-07-29T00:27:40;20.00;99.90
18733;DHT22;9495;51.210;2.934;2023-07-29T00:30:09;19.90;99.90
18733;DHT22;9495;51.210;2.934;2023-07-29T00:32:37;19.70;99.90
18733;DHT22;9495;51.210;2.934;2023-07-29T00:35:08;19.90;99.90
18733;DHT22;9495;51.210;2.934;2023-07-29T00:37:36;19.80;99.90
18733;DHT22;9495;51.210;2.934;2023-07-29T00:40:12;19.80;99.90
18733;DHT22;9495;51.210;2.934;2023-07-29T00:42:42;20.20;99.90
18733;DHT22;9495;51.210;2.934;2023-07-29T00:45:11;20.20;99.90
18733;DHT22;9495;51.210;2.934;2023-07-29T00:47:39;20.20;99.90
18733;DHT22;9495;51.210;2.934;2023-07-29T00:50:11;19.90;99.90
18733;DHT22;9495;51.210;2.934;2023-07-29T00:52:41;19.80;99.90
18733;DHT22;9495;51.210;2.934;2023-07-29T00:55:10;20.00;99.90
18733;DHT22;9495;51.210;2.934;2023-07-29T00:57:38;19.90;99.90
18733;DHT22;9495;51.210;2.934;2023-07-29T01:00:08;19.80;99.90
18733;DHT22;9495;51.210;2.934;2023-07-29T01:02:37;19.80;99.90
18733;DHT22;9495;51.210;2.934;2023-07-29T01:05:07;20.00;99.90
18733;DHT22;9495;51.210;2.934;2023-07-29T01:07:45;19.60;99.90
18733;DHT22;9495;51.210;2.934;2023-07-29T01:10:22;19.70;99.90
18733;DHT22;9495;51.210;2.934;2023-07-29T01:12:59;20.10;99.90
18733;DHT22;9495;51.210;2.934;2023-07-29T01:15:31;19.80;99.90
18733;DHT22;9495;51.210;2.934;2023-07-29T01:18:05;19.80;99.90
18733;DHT22;9495;51.210;2.934;2023-07-29T01:20:38;19.80;99.90
18733;DHT22;9495;51.210;2.934;2023-07-29T01:23:09;19.80;99.90
18733;DHT22;9495;51.210;2.934;2023-07-29T01:25:39;19.90;99.90
18733;DHT22;9495;51.210;2.934;2023-07-29T01:28:08;19.80;99.90
18733;DHT22;9495;51.210;2.934;2023-07-29T01:30:40;20.10;99.90
18733;DHT22;9495;51.210;2.934;2023-07-29T01:33:12;20.00;99.90
18733;DHT22;9495;51.210;2.934;2023-07-29T01:35:45;20.40;99.90
18733;DHT22;9495;51.210;2.934;2023-07-29T01:38:16;20.70;99.90
18733;DHT22;9495;51.210;2.934;2023-07-29T01:40:48;20.80;99.90
18733;DHT22;9495;51.210;2.934;2023-07-29T01:43:17;21.00;99.90
18733;DHT22;9495;51.210;2.934;2023-07-29T01:45:46;20.60;99.90
18733;DHT22;9495;51.210;2.934;2023-07-29T01:48:14;20.70;99.90
18733;DHT22;9495;51.210;2.934;2023-07-29T01:50:43;20.60;99.90
18733;DHT22;9495;51.210;2.934;2023-07-29T01:53:11;20.50;99.90
18733;DHT22;9495;51.210;2.934;2023-07-29T01:55:40;20.50;99.90
18733;DHT22;9495;51.210;2.934;2023-07-29T01:58:10;21.10;99.90
18733;DHT22;9495;51.210;2.934;2023-07-29T02:00:38;21.20;99.90
18733;DHT22;9495;51.210;2.934;2023-07-29T02:03:07;21.00;99.90
18733;DHT22;9495;51.210;2.934;2023-07-29T02:05:36;21.00;99.90
18733;DHT22;9495;51.210;2.934;2023-07-29T02:08:04;21.10;99.90
18733;DHT22;9495;51.210;2.934;2023-07-29T02:10:33;21.20;99.90
18733;DHT22;9495;51.210;2.934;2023-07-29T02:13:02;21.00;99.90
18733;DHT22;9495;51.210;2.934;2023-07-29T02:15:32;20.70;99.90
18733;DHT22;9495;51.210;2.934;2023-07-29T02:18:01;20.90;99.90
18733;DHT22;9495;51.210;2.934;2023-07-29T02:20:30;20.90;99.90
18733;DHT22;9495;51.210;2.934;2023-07-29T02:22:59;20.60;99.90
18733;DHT22;9495;51.210;2.934;2023-07-29T02:25:27;20.20;99.90
18733;DHT22;9495;51.210;2.934;2023-07-29T02:27:56;20.20;99.90
18733;DHT22;9495;51.210;2.934;2023-07-29T02:30:24;20.60;99.90
18733;DHT22;9495;51.210;2.934;2023-07-29T02:32:54;20.40;99.90
18733;DHT22;9495;51.210;2.934;2023-07-29T02:35:22;20.80;99.90
18733;DHT22;9495;51.210;2.934;2023-07-29T02:37:51;20.90;99.90
18733;DHT22;9495;51.210;2.934;2023-07-29T02:40:19;21.10;99.90
18733;DHT22;9495;51.210;2.934;2023-07-29T02:42:50;20.70;99.90
18733;DHT22;9495;51.210;2.934;2023-07-29T02:45:18;20.50;99.90
18733;DHT22;9495;51.210;2.934;2023-07-29T02:47:47;20.70;99.90
18733;DHT22;9495;51.210;2.934;2023-07-29T02:50:17;20.90;99.90
18733;DHT22;9495;51.210;2.934;2023-07-29T02:52:46;21.10;99.90
18733;DHT22;9495;51.210;2.934;2023-07-29T02:55:17;21.10;99.90
18733;DHT22;9495;51.210;2.934;2023-07-29T02:57:46;20.90;99.90
18733;DHT22;9495;51.210;2.934;2023-07-29T03:00:14;20.50;99.90
18733;DHT22;9495;51.210;2.934;2023-07-29T03:02:43;21.00;99.90
18733;DHT22;9495;51.210;2.934;2023-07-29T03:05:12;20.80;99.90
18733;DHT22;9495;51.210;2.934;2023-07-29T03:07:42;21.00;99.90
18733;DHT22;9495;51.210;2.934;2023-07-29T03:10:11;21.00;99.90
18733;DHT22;9495;51.210;2.934;2023-07-29T03:12:40;21.00;99.90
18733;DHT22;9495;51.210;2.934;2023-07-29T03:15:09;20.80;99.90
18733;DHT22;9495;51.210;2.934;2023-07-29T03:17:37;21.20;99.90
18733;DHT22;9495;51.210;2.934;2023-07-29T03:20:07;21.20;99.90
18733;DHT22;9495;51.210;2.934;2023-07-29T03:22:36;21.30;99.90
18733;DHT22;9495;51.210;2.934;2023-07-29T03:25:06;21.00;99.90
18733;DHT22;9495;51.210;2.934;2023-07-29T03:27:35;20.70;99.90
18733;DHT22;9495;51.210;2.934;2023-07-29T03:30:04;20.60;99.90
18733;DHT22;9495;51.210;2.934;2023-07-29T03:32:33;21.00;99.90
18733;DHT22;9495;51.210;2.934;2023-07-29T03:35:02;20.60;99.90
18733;DHT22;9495;51.210;2.934;2023-07-29T03:37:31;20.50;99.90
18733;DHT22;9495;51.210;2.934;2023-07-29T03:39:59;20.70;99.90
18733;DHT22;9495;51.210;2.934;2023-07-29T03:42:32;20.80;99.90
18733;DHT22;9495;51.210;2.934;2023-07-29T03:45:01;20.80;99.90
18733;DHT22;9495;51.210;2.934;2023-07-29T03:47:29;20.70;99.90
18733;DHT22;9495;51.210;2.934;2023-07-29T03:49:58;20.40;99.90
18733;DHT22;9495;51.210;2.934;2023-07-29T03:52:26;20.60;99.90
18733;DHT22;9495;51.210;2.934;2023-07-29T03:54:55;20.60;99.90
18733;DHT22;9495;51.210;2.934;2023-07-29T03:57:23;20.80;99.90
18733;DHT22;9495;51.210;2.934;2023-07-29T03:59:53;20.40;99.90
18733;DHT22;9495;51.210;2.934;2023-07-29T04:02:22;20.30;99.90
18733;DHT22;9495;51.210;2.934;2023-07-29T04:04:50;20.10;99.90
18733;DHT22;9495;51.210;2.934;2023-07-29T04:07:19;20.20;99.90
18733;DHT22;9495;51.210;2.934;2023-07-29T04:09:47;20.20;99.90
18733;DHT22;9495;51.210;2.934;2023-07-29T04:12:16;20.30;99.90
18733;DHT22;9495;51.210;2.934;2023-07-29T04:14:48;20.80;99.90
18733;DHT22;9495;51.210;2.934;2023-07-29T04:17:18;20.90;99.90
18733;DHT22;9495;51.210;2.934;2023-07-29T04:19:47;20.90;99.90
18733;DHT22;9495;51.210;2.934;2023-07-29T04:22:16;21.00;99.90
18733;DHT22;9495;51.210;2.934;2023-07-29T04:24:44;20.90;99.90
18733;DHT22;9495;51.210;2.934;2023-07-29T04:27:13;21.00;99.90
18733;DHT22;9495;51.210;2.934;2023-07-29T04:29:41;20.90;99.90
18733;DHT22;9495;51.210;2.934;2023-07-29T04:32:10;20.90;99.90
18733;DHT22;9495;51.210;2.934;2023-07-29T04:34:40;20.80;99.90
18733;DHT22;9495;51.210;2.934;2023-07-29T04:37:08;21.00;99.90
18733;DHT22;9495;51.210;2.934;2023-07-29T04:39:37;20.90;99.90
18733;DHT22;9495;51.210;2.934;2023-07-29T04:42:06;21.00;99.90
18733;DHT22;9495;51.210;2.934;2023-07-29T04:44:34;21.10;99.90
18733;DHT22;9495;51.210;2.934;2023-07-29T04:47:03;21.20;99.90
18733;DHT22;9495;51.210;2.934;2023-07-29T04:49:32;21.00;99.90
18733;DHT22;9495;51.210;2.934;2023-07-29T04:52:01;21.00;99.90
18733;DHT22;9495;51.210;2.934;2023-07-29T04:54:30;21.20;99.90
18733;DHT22;9495;51.210;2.934;2023-07-29T04:56:59;21.30;99.90
18733;DHT22;9495;51.210;2.934;2023-07-29T04:59:27;21.40;99.90
18733;DHT22;9495;51.210;2.934;2023-07-29T05:01:56;21.20;99.90
18733;DHT22;9495;51.210;2.934;2023-07-29T05:04:24;21.50;99.90
18733;DHT22;9495;51.210;2.934;2023-07-29T05:06:53;21.40;99.90
18733;DHT22;9495;51.210;2.934;2023-07-29T05:09:24;21.50;99.90
18733;DHT22;9495;51.210;2.934;2023-07-29T05:11:55;21.20;99.90
18733;DHT22;9495;51.210;2.934;2023-07-29T05:14:23;21.00;99.90
18733;DHT22;9495;51.210;2.934;2023-07-29T05:16:52;21.20;99.90
18733;DHT22;9495;51.210;2.934;2023-07-29T05:19:20;21.30;99.90
18733;DHT22;9495;51.210;2.934;2023-07-29T05:21:49;21.00;99.90
18733;DHT22;9495;51.210;2.934;2023-07-29T05:24:18;21.10;99.90
18733;DHT22;9495;51.210;2.934;2023-07-29T05:26:48;21.30;99.90
18733;DHT22;9495;51.210;2.934;2023-07-29T05:29:16;21.20;99.90
18733;DHT22;9495;51.210;2.934;2023-07-29T05:31:44;21.10;99.90
18733;DHT22;9495;51.210;2.934;2023-07-29T05:34:13;21.20;99.90
18733;DHT22;9495;51.210;2.934;2023-07-29T05:36:45;21.00;99.90
18733;DHT22;9495;51.210;2.934;2023-07-29T05:39:13;21.20;99.90
18733;DHT22;9495;51.210;2.934;2023-07-29T05:41:42;21.30;99.90
18733;DHT22;9495;51.210;2.934;2023-07-29T05:44:11;21.00;99.90
18733;DHT22;9495;51.210;2.934;2023-07-29T05:46:40;20.90;99.90
18733;DHT22;9495;51.210;2.934;2023-07-29T05:49:08;21.20;99.90
18733;DHT22;9495;51.210;2.934;2023-07-29T05:51:37;21.60;99.90
18733;DHT22;9495;51.210;2.934;2023-07-29T05:54:05;21.40;99.90
18733;DHT22;9495;51.210;2.934;2023-07-29T05:56:34;21.50;99.90
18733;DHT22;9495;51.210;2.934;2023-07-29T05:59:03;21.30;99.90
18733;DHT22;9495;51.210;2.934;2023-07-29T06:01:32;21.40;99.90
18733;DHT22;9495;51.210;2.934;2023-07-29T06:04:01;21.40;99.90
18733;DHT22;9495;51.210;2.934;2023-07-29T06:06:30;21.60;99.90
18733;DHT22;9495;51.210;2.934;2023-07-29T06:08:59;21.80;99.90
18733;DHT22;9495;51.210;2.934;2023-07-29T06:11:27;21.50;99.90
18733;DHT22;9495;51.210;2.934;2023-07-29T06:13:56;21.60;99.90
18733;DHT22;9495;51.210;2.934;2023-07-29T06:16:25;21.60;99.90
18733;DHT22;9495;51.210;2.934;2023-07-29T06:18:55;21.80;99.90
18733;DHT22;9495;51.210;2.934;2023-07-29T06:21:23;21.80;99.90
18733;DHT22;9495;51.210;2.934;2023-07-29T06:23:52;21.90;99.90
18733;DHT22;9495;51.210;2.934;2023-07-29T06:26:20;22.00;99.90
18733;DHT22;9495;51.210;2.934;2023-07-29T06:28:49;21.80;99.90
18733;DHT22;9495;51.210;2.934;2023-07-29T06:31:17;21.90;99.90
18733;DHT22;9495;51.210;2.934;2023-07-29T06:33:46;22.00;99.90
18733;DHT22;9495;51.210;2.934;2023-07-29T06:36:16;21.90;99.90
18733;DHT22;9495;51.210;2.934;2023-07-29T06:38:45;21.80;99.90
18733;DHT22;9495;51.210;2.934;2023-07-29T06:41:14;21.70;99.90
18733;DHT22;9495;51.210;2.934;2023-07-29T06:43:45;21.70;99.90
18733;DHT22;9495;51.210;2.934;2023-07-29T06:46:14;21.90;99.90
18733;DHT22;9495;51.210;2.934;2023-07-29T06:48:42;21.70;99.90
18733;DHT22;9495;51.210;2.934;2023-07-29T06:51:11;21.90;99.90
18733;DHT22;9495;51.210;2.934;2023-07-29T06:53:41;21.90;99.90
18733;DHT22;9495;51.210;2.934;2023-07-29T06:56:10;22.10;99.90
18733;DHT22;9495;51.210;2.934;2023-07-29T06:58:38;21.80;99.90
18733;DHT22;9495;51.210;2.934;2023-07-29T07:01:07;21.40;99.90
18733;DHT22;9495;51.210;2.934;2023-07-29T07:03:35;20.80;99.90
18733;DHT22;9495;51.210;2.934;2023-07-29T07:06:04;20.70;99.90
18733;DHT22;9495;51.210;2.934;2023-07-29T07:08:33;20.50;99.90
18733;DHT22;9495;51.210;2.934;2023-07-29T07:11:02;20.40;99.90
18733;DHT22;9495;51.210;2.934;2023-07-29T07:13:31;20.30;99.90
18733;DHT22;9495;51.210;2.934;2023-07-29T07:15:59;20.50;99.90
18733;DHT22;9495;51.210;2.934;2023-07-29T07:18:28;20.30;99.90
18733;DHT22;9495;51.210;2.934;2023-07-29T07:20:56;20.30;99.90
18733;DHT22;9495;51.210;2.934;2023-07-29T07:23:25;20.40;99.90
18733;DHT22;9495;51.210;2.934;2023-07-29T07:25:53;20.50;99.90
18733;DHT22;9495;51.210;2.934;2023-07-29T07:28:23;20.50;99.90
18733;DHT22;9495;51.210;2.934;2023-07-29T07:30:52;20.40;99.90
18733;DHT22;9495;51.210;2.934;2023-07-29T07:33:22;20.40;99.90
18733;DHT22;9495;51.210;2.934;2023-07-29T07:35:51;20.20;99.90
18733;DHT22;9495;51.210;2.934;2023-07-29T07:38:19;20.30;99.90
18733;DHT22;9495;51.210;2.934;2023-07-29T07:40:53;20.40;99.90
18733;DHT22;9495;51.210;2.934;2023-07-29T07:43:24;20.50;99.90
18733;DHT22;9495;51.210;2.934;2023-07-29T07:45:58;20.60;99.90
18733;DHT22;9495;51.210;2.934;2023-07-29T07:48:27;20.60;99.90
18733;DHT22;9495;51.210;2.934;2023-07-29T07:50:55;20.50;99.90
18733;DHT22;9495;51.210;2.934;2023-07-29T07:53:24;20.40;99.90
18733;DHT22;9495;51.210;2.934;2023-07-29T07:55:53;20.70;99.90
18733;DHT22;9495;51.210;2.934;2023-07-29T07:58:23;21.20;99.90
18733;DHT22;9495;51.210;2.934;2023-07-29T08:00:51;21.50;99.90
18733;DHT22;9495;51.210;2.934;2023-07-29T08:03:20;21.70;99.90
18733;DHT22;9495;51.210;2.934;2023-07-29T08:05:49;21.70;99.90
18733;DHT22;9495;51.210;2.934;2023-07-29T08:08:18;21.70;99.90
18733;DHT22;9495;51.210;2.934;2023-07-29T08:10:46;21.90;99.90
18733;DHT22;9495;51.210;2.934;2023-07-29T08:13:15;21.90;99.90
18733;DHT22;9495;51.210;2.934;2023-07-29T08:15:47;22.00;99.90
18733;DHT22;9495;51.210;2.934;2023-07-29T08:18:16;21.90;99.90
18733;DHT22;9495;51.210;2.934;2023-07-29T08:20:52;21.90;99.90
18733;DHT22;9495;51.210;2.934;2023-07-29T08:23:21;21.90;99.90
18733;DHT22;9495;51.210;2.934;2023-07-29T08:25:53;22.00;99.90
18733;DHT22;9495;51.210;2.934;2023-07-29T08:28:23;22.00;99.90
18733;DHT22;9495;51.210;2.934;2023-07-29T08:30:53;21.80;99.90
18733;DHT22;9495;51.210;2.934;2023-07-29T08:33:21;22.00;99.90
18733;DHT22;9495;51.210;2.934;2023-07-29T08:35:50;22.00;99.90
18733;DHT22;9495;51.210;2.934;2023-07-29T08:38:19;22.10;99.90
18733;DHT22;9495;51.210;2.934;2023-07-29T08:40:52;22.10;99.90
18733;DHT22;9495;51.210;2.934;2023-07-29T08:43:24;22.00;99.90
18733;DHT22;9495;51.210;2.934;2023-07-29T08:45:57;21.80;99.90
18733;DHT22;9495;51.210;2.934;2023-07-29T08:48:32;21.60;99.90
18733;DHT22;9495;51.210;2.934;2023-07-29T08:51:01;21.70;99.90
18733;DHT22;9495;51.210;2.934;2023-07-29T08:53:32;21.90;99.90
18733;DHT22;9495;51.210;2.934;2023-07-29T08:56:01;21.70;99.90
18733;DHT22;9495;51.210;2.934;2023-07-29T08:58:30;21.90;99.90
18733;DHT22;9495;51.210;2.934;2023-07-29T09:01:00;21.90;99.90
18733;DHT22;9495;51.210;2.934;2023-07-29T09:03:28;21.40;99.90
18733;DHT22;9495;51.210;2.934;2023-07-29T09:05:58;21.30;99.90
18733;DHT22;9495;51.210;2.934;2023-07-29T09:08:27;21.10;99.90
18733;DHT22;9495;51.210;2.934;2023-07-29T09:10:55;21.00;99.90
18733;DHT22;9495;51.210;2.934;2023-07-29T09:13:24;21.00;99.90
18733;DHT22;9495;51.210;2.934;2023-07-29T09:15:54;21.00;99.90
18733;DHT22;9495;51.210;2.934;2023-07-29T09:18:26;21.10;99.90
18733;DHT22;9495;51.210;2.934;2023-07-29T09:20:59;21.10;99.90
18733;DHT22;9495;51.210;2.934;2023-07-29T09:23:28;21.30;99.90
18733;DHT22;9495;51.210;2.934;2023-07-29T09:26:01;21.80;99.90
18733;DHT22;9495;51.210;2.934;2023-07-29T09:28:33;22.00;99.90
18733;DHT22;9495;51.210;2.934;2023-07-29T09:31:03;22.10;99.90
18733;DHT22;9495;51.210;2.934;2023-07-29T09:33:35;22.10;99.90
18733;DHT22;9495;51.210;2.934;2023-07-29T09:36:09;22.20;99.90
18733;DHT22;9495;51.210;2.934;2023-07-29T09:38:37;22.20;99.90
18733;DHT22;9495;51.210;2.934;2023-07-29T09:41:06;22.30;99.90
18733;DHT22;9495;51.210;2.934;2023-07-29T09:43:35;22.30;99.90
18733;DHT22;9495;51.210;2.934;2023-07-29T09:46:05;22.30;99.90
18733;DHT22;9495;51.210;2.934;2023-07-29T09:48:36;22.40;99.90
18733;DHT22;9495;51.210;2.934;2023-07-29T09:51:10;22.40;99.90
18733;DHT22;9495;51.210;2.934;2023-07-29T09:53:41;22.40;99.90
18733;DHT22;9495;51.210;2.934;2023-07-29T09:56:13;22.30;99.90
18733;DHT22;9495;51.210;2.934;2023-07-29T09:58:43;22.30;99.90
18733;DHT22;9495;51.210;2.934;2023-07-29T10:01:13;22.40;99.90
18733;DHT22;9495;51.210;2.934;2023-07-29T10:03:44;22.30;99.90
18733;DHT22;9495;51.210;2.934;2023-07-29T10:06:14;22.40;99.90
18733;DHT22;9495;51.210;2.934;2023-07-29T10:08:43;22.20;99.90
18733;DHT22;9495;51.210;2.934;2023-07-29T10:11:13;22.10;99.90
18733;DHT22;9495;51.210;2.934;2023-07-29T10:13:41;22.40;99.90
18733;DHT22;9495;51.210;2.934;2023-07-29T10:16:23;22.10;99.90
18733;DHT22;9495;51.210;2.934;2023-07-29T10:18:54;21.80;99.90
18733;DHT22;9495;51.210;2.934;2023-07-29T10:21:24;21.70;99.90
18733;DHT22;9495;51.210;2.934;2023-07-29T10:23:53;21.70;99.90
18733;DHT22;9495;51.210;2.934;2023-07-29T10:26:27;21.70;99.90
18733;DHT22;9495;51.210;2.934;2023-07-29T10:28:59;21.70;99.90
18733;DHT22;9495;51.210;2.934;2023-07-29T10:31:33;21.70;99.90
18733;DHT22;9495;51.210;2.934;2023-07-29T10:34:03;21.70;99.90
18733;DHT22;9495;51.210;2.934;2023-07-29T10:36:31;21.30;99.90
18733;DHT22;9495;51.210;2.934;2023-07-29T10:39:00;21.10;99.90
18733;DHT22;9495;51.210;2.934;2023-07-29T10:41:56;21.10;99.90
18733;DHT22;9495;51.210;2.934;2023-07-29T10:44:45;21.20;99.90
18733;DHT22;9495;51.210;2.934;2023-07-29T10:47:17;21.40;99.90
18733;DHT22;9495;51.210;2.934;2023-07-29T10:49:50;21.50;99.90
18733;DHT22;9495;51.210;2.934;2023-07-29T10:52:29;21.30;99.90
18733;DHT22;9495;51.210;2.934;2023-07-29T10:54:58;21.60;99.90
18733;DHT22;9495;51.210;2.934;2023-07-29T10:57:32;21.60;99.90
18733;DHT22;9495;51.210;2.934;2023-07-29T11:00:01;21.50;99.90
18733;DHT22;9495;51.210;2.934;2023-07-29T11:02:32;21.40;99.90
18733;DHT22;9495;51.210;2.934;2023-07-29T11:05:05;21.60;99.90
18733;DHT22;9495;51.210;2.934;2023-07-29T11:07:43;21.90;99.90
18733;DHT22;9495;51.210;2.934;2023-07-29T11:10:14;21.70;99.90
18733;DHT22;9495;51.210;2.934;2023-07-29T11:12:44;21.90;99.90
18733;DHT22;9495;51.210;2.934;2023-07-29T11:15:16;22.30;99.90
18733;DHT22;9495;51.210;2.934;2023-07-29T11:17:47;22.10;99.90
18733;DHT22;9495;51.210;2.934;2023-07-29T11:20:18;22.20;99.90
18733;DHT22;9495;51.210;2.934;2023-07-29T11:22:47;22.10;99.90
18733;DHT22;9495;51.210;2.934;2023-07-29T11:25:17;21.80;99.90
18733;DHT22;9495;51.210;2.934;2023-07-29T11:27:45;22.10;99.90
18733;DHT22;9495;51.210;2.934;2023-07-29T11:30:15;21.80;99.90
18733;DHT22;9495;51.210;2.934;2023-07-29T11:32:45;21.90;99.90
18733;DHT22;9495;51.210;2.934;2023-07-29T11:35:15;21.70;99.90
18733;DHT22;9495;51.210;2.934;2023-07-29T11:37:46;22.10;99.90
18733;DHT22;9495;51.210;2.934;2023-07-29T11:40:15;22.00;99.90
18733;DHT22;9495;51.210;2.934;2023-07-29T11:42:45;21.70;99.90
18733;DHT22;9495;51.210;2.934;2023-07-29T11:45:15;21.90;99.90
18733;DHT22;9495;51.210;2.934;2023-07-29T11:47:44;22.20;99.90
18733;DHT22;9495;51.210;2.934;2023-07-29T11:50:14;21.90;99.90
18733;DHT22;9495;51.210;2.934;2023-07-29T11:52:45;22.00;99.90
18733;DHT22;9495;51.210;2.934;2023-07-29T11:55:15;22.00;99.90
18733;DHT22;9495;51.210;2.934;2023-07-29T11:57:50;22.10;99.90
18733;DHT22;9495;51.210;2.934;2023-07-29T12:00:21;22.20;99.90
18733;DHT22;9495;51.210;2.934;2023-07-29T12:02:50;22.20;99.90
18733;DHT22;9495;51.210;2.934;2023-07-29T12:05:20;22.10;99.90
18733;DHT22;9495;51.210;2.934;2023-07-29T12:07:50;22.00;99.90
18733;DHT22;9495;51.210;2.934;2023-07-29T12:10:19;21.80;99.90
18733;DHT22;9495;51.210;2.934;2023-07-29T12:12:49;22.00;99.90
18733;DHT22;9495;51.210;2.934;2023-07-29T12:15:25;22.30;99.90
18733;DHT22;9495;51.210;2.934;2023-07-29T12:17:54;22.10;99.90
18733;DHT22;9495;51.210;2.934;2023-07-29T12:20:25;22.20;99.90
18733;DHT22;9495;51.210;2.934;2023-07-29T12:22:56;22.40;99.90
18733;DHT22;9495;51.210;2.934;2023-07-29T12:25:28;22.40;99.90
18733;DHT22;9495;51.210;2.934;2023-07-29T12:27:56;22.40;99.90
18733;DHT22;9495;51.210;2.934;2023-07-29T12:30:25;22.50;99.90
18733;DHT22;9495;51.210;2.934;2023-07-29T12:32:53;22.70;99.90
18733;DHT22;9495;51.210;2.934;2023-07-29T12:35:22;22.40;99.90
18733;DHT22;9495;51.210;2.934;2023-07-29T12:38:00;22.20;99.90
18733;DHT22;9495;51.210;2.934;2023-07-29T12:40:28;22.50;99.90
18733;DHT22;9495;51.210;2.934;2023-07-29T12:42:57;22.60;99.90
18733;DHT22;9495;51.210;2.934;2023-07-29T12:45:26;22.70;99.90
18733;DHT22;9495;51.210;2.934;2023-07-29T12:47:56;22.80;99.90
18733;DHT22;9495;51.210;2.934;2023-07-29T12:50:24;22.90;99.90
18733;DHT22;9495;51.210;2.934;2023-07-29T12:52:54;22.90;99.90
18733;DHT22;9495;51.210;2.934;2023-07-29T12:55:24;22.90;99.90
18733;DHT22;9495;51.210;2.934;2023-07-29T12:57:52;22.90;99.90
18733;DHT22;9495;51.210;2.934;2023-07-29T13:00:21;22.90;99.90
18733;DHT22;9495;51.210;2.934;2023-07-29T13:02:49;23.00;99.90
18733;DHT22;9495;51.210;2.934;2023-07-29T13:05:18;22.90;99.90
18733;DHT22;9495;51.210;2.934;2023-07-29T13:07:47;23.00;99.90
18733;DHT22;9495;51.210;2.934;2023-07-29T13:10:15;23.00;99.90
18733;DHT22;9495;51.210;2.934;2023-07-29T13:12:45;23.00;99.90
18733;DHT22;9495;51.210;2.934;2023-07-29T13:15:14;23.00;99.90
18733;DHT22;9495;51.210;2.934;2023-07-29T13:17:42;23.10;99.90
18733;DHT22;9495;51.210;2.934;2023-07-29T13:20:11;23.10;99.90
18733;DHT22;9495;51.210;2.934;2023-07-29T13:22:39;23.20;99.90
18733;DHT22;9495;51.210;2.934;2023-07-29T13:25:08;23.20;99.90
18733;DHT22;9495;51.210;2.934;2023-07-29T13:27:37;23.10;99.90
18733;DHT22;9495;51.210;2.934;2023-07-29T13:30:08;23.10;99.90
18733;DHT22;9495;51.210;2.934;2023-07-29T13:32:37;22.90;99.90
18733;DHT22;9495;51.210;2.934;2023-07-29T13:35:09;22.80;99.90
18733;DHT22;9495;51.210;2.934;2023-07-29T13:37:38;22.40;99.90
18733;DHT22;9495;51.210;2.934;2023-07-29T13:40:07;22.50;99.90
18733;DHT22;9495;51.210;2.934;2023-07-29T13:42:35;22.50;99.90
18733;DHT22;9495;51.210;2.934;2023-07-29T13:45:06;22.70;99.90
18733;DHT22;9495;51.210;2.934;2023-07-29T13:47:35;22.60;99.90
18733;DHT22;9495;51.210;2.934;2023-07-29T13:50:04;22.50;99.90
18733;DHT22;9495;51.210;2.934;2023-07-29T13:52:35;22.30;99.90
18733;DHT22;9495;51.210;2.934;2023-07-29T13:55:04;22.30;99.90
18733;DHT22;9495;51.210;2.934;2023-07-29T13:57:33;22.70;99.90
18733;DHT22;9495;51.210;2.934;2023-07-29T14:00:01;22.60;99.90
18733;DHT22;9495;51.210;2.934;2023-07-29T14:02:32;22.70;99.90
18733;DHT22;9495;51.210;2.934;2023-07-29T14:05:00;22.30;99.90
18733;DHT22;9495;51.210;2.934;2023-07-29T14:07:29;22.10;99.90
18733;DHT22;9495;51.210;2.934;2023-07-29T14:09:57;22.30;99.90
18733;DHT22;9495;51.210;2.934;2023-07-29T14:12:28;22.30;99.90
18733;DHT22;9495;51.210;2.934;2023-07-29T14:14:57;22.20;99.90
18733;DHT22;9495;51.210;2.934;2023-07-29T14:17:25;22.30;99.90
18733;DHT22;9495;51.210;2.934;2023-07-29T14:19:55;22.40;99.90
18733;DHT22;9495;51.210;2.934;2023-07-29T14:22:24;22.50;99.90
18733;DHT22;9495;51.210;2.934;2023-07-29T14:24:52;22.70;99.90
18733;DHT22;9495;51.210;2.934;2023-07-29T14:27:22;22.80;99.90
18733;DHT22;9495;51.210;2.934;2023-07-29T14:29:51;23.10;99.90
18733;DHT22;9495;51.210;2.934;2023-07-29T14:32:19;23.10;99.90
18733;DHT22;9495;51.210;2.934;2023-07-29T14:34:50;23.20;99.90
18733;DHT22;9495;51.210;2.934;2023-07-29T14:37:19;23.30;99.90
18733;DHT22;9495;51.210;2.934;2023-07-29T14:39:48;23.40;99.90
18733;DHT22;9495;51.210;2.934;2023-07-29T14:42:16;23.30;99.90
18733;DHT22;9495;51.210;2.934;2023-07-29T14:44:45;23.30;99.90
18733;DHT22;9495;51.210;2.934;2023-07-29T14:47:14;23.30;99.90
18733;DHT22;9495;51.210;2.934;2023-07-29T14:49:43;23.20;99.90
18733;DHT22;9495;51.210;2.934;2023-07-29T14:52:11;23.10;99.90
18733;DHT22;9495;51.210;2.934;2023-07-29T14:54:41;22.90;99.90
18733;DHT22;9495;51.210;2.934;2023-07-29T14:57:10;22.90;99.90
18733;DHT22;9495;51.210;2.934;2023-07-29T14:59:38;23.00;99.90
18733;DHT22;9495;51.210;2.934;2023-07-29T15:02:07;22.90;99.90
18733;DHT22;9495;51.210;2.934;2023-07-29T15:04:35;23.00;99.90
18733;DHT22;9495;51.210;2.934;2023-07-29T15:07:04;22.90;99.90
18733;DHT22;9495;51.210;2.934;2023-07-29T15:09:33;22.90;99.90
18733;DHT22;9495;51.210;2.934;2023-07-29T15:12:03;22.80;99.90
18733;DHT22;9495;51.210;2.934;2023-07-29T15:14:32;23.00;99.90
18733;DHT22;9495;51.210;2.934;2023-07-29T15:17:01;23.00;99.90
18733;DHT22;9495;51.210;2.934;2023-07-29T15:19:29;22.90;99.90
18733;DHT22;9495;51.210;2.934;2023-07-29T15:21:58;23.00;99.90
18733;DHT22;9495;51.210;2.934;2023-07-29T15:24:26;23.20;99.90
18733;DHT22;9495;51.210;2.934;2023-07-29T15:26:57;23.20;99.90
18733;DHT22;9495;51.210;2.934;2023-07-29T15:29:27;23.00;99.90
18733;DHT22;9495;51.210;2.934;2023-07-29T15:31:56;22.90;99.90
18733;DHT22;9495;51.210;2.934;2023-07-29T15:34:25;23.00;99.90
18733;DHT22;9495;51.210;2.934;2023-07-29T15:36:54;23.20;99.90
18733;DHT22;9495;51.210;2.934;2023-07-29T15:39:23;23.00;99.90
18733;DHT22;9495;51.210;2.934;2023-07-29T15:41:51;23.20;99.90
18733;DHT22;9495;51.210;2.934;2023-07-29T15:44:20;23.10;99.90
18733;DHT22;9495;51.210;2.934;2023-07-29T15:46:50;23.10;99.90
18733;DHT22;9495;51.210;2.934;2023-07-29T15:49:20;23.00;99.90
18733;DHT22;9495;51.210;2.934;2023-07-29T15:51:48;23.20;99.90
18733;DHT22;9495;51.210;2.934;2023-07-29T15:54:16;23.10;99.90
18733;DHT22;9495;51.210;2.934;2023-07-29T15:56:45;23.10;99.90
18733;DHT22;9495;51.210;2.934;2023-07-29T15:59:13;23.10;99.90